createdAt,value
2023-04-28T00:02:18.374Z,3.47
2023-04-28T00:04:45.830Z,4.32
2023-04-28T00:07:13.412Z,4.32
2023-04-28T00:09:40.474Z,4.00
2023-04-28T00:12:07.628Z,4.10
2023-04-28T00:14:34.749Z,4.05
2023-04-28T00:17:03.247Z,4.10
2023-04-28T00:19:30.777Z,3.85
2023-04-28T00:21:57.941Z,4.00
2023-04-28T00:24:25.058Z,3.97
2023-04-28T00:26:52.440Z,3.80
2023-04-28T00:29:19.466Z,4.22
2023-04-28T00:31:46.584Z,3.38
2023-04-28T00:34:15.165Z,3.60
2023-04-28T00:36:42.509Z,3.85
2023-04-28T00:39:10.096Z,3.85
2023-04-28T00:41:37.311Z,3.67
2023-04-28T00:44:04.506Z,3.78
2023-04-28T00:46:32.359Z,3.88
2023-04-28T00:48:59.371Z,4.25
2023-04-28T00:51:28.879Z,3.80
2023-04-28T00:53:56.007Z,3.67
2023-04-28T00:56:23.083Z,3.50
2023-04-28T00:58:50.179Z,3.72
2023-04-28T01:01:17.273Z,4.00
2023-04-28T01:03:44.526Z,3.75
2023-04-28T01:06:11.881Z,4.07
2023-04-28T01:08:39.256Z,4.10
2023-04-28T01:11:07.135Z,4.18
2023-04-28T01:13:34.218Z,4.13
2023-04-28T01:16:01.323Z,4.00
2023-04-28T01:18:28.479Z,4.70
2023-04-28T01:20:56.140Z,3.90
2023-04-28T01:23:23.210Z,4.10
2023-04-28T01:25:50.401Z,4.13
2023-04-28T01:28:17.478Z,4.15
2023-04-28T01:30:44.643Z,4.45
2023-04-28T01:33:11.706Z,4.70
2023-04-28T01:35:38.790Z,3.67
2023-04-28T01:38:06.081Z,3.88
2023-04-28T01:40:33.268Z,4.28
2023-04-28T01:43:00.304Z,4.30
2023-04-28T01:45:27.320Z,4.38
2023-04-28T01:47:54.389Z,3.75
2023-04-28T01:50:21.472Z,3.88
2023-04-28T01:52:48.498Z,4.32
2023-04-28T01:55:15.633Z,4.43
2023-04-28T01:57:43.303Z,4.38
2023-04-28T02:00:10.669Z,4.35
2023-04-28T02:02:37.840Z,4.57
2023-04-28T02:05:04.998Z,4.50
2023-04-28T02:07:32.083Z,4.40
2023-04-28T02:09:59.136Z,5.28
2023-04-28T02:12:26.250Z,4.40
2023-04-28T02:14:53.336Z,4.75
2023-04-28T02:17:20.421Z,5.10
2023-04-28T02:19:47.536Z,4.82
2023-04-28T02:22:14.595Z,5.53
2023-04-28T02:24:41.662Z,5.50
2023-04-28T02:27:08.860Z,4.78
2023-04-28T02:29:36.170Z,4.32
2023-04-28T02:32:04.554Z,5.05
2023-04-28T02:34:31.659Z,4.75
2023-04-28T02:36:58.755Z,5.20
2023-04-28T02:39:27.368Z,4.53
2023-04-28T02:41:54.502Z,5.20
2023-04-28T02:44:21.577Z,5.00
2023-04-28T02:46:48.740Z,4.63
2023-04-28T02:49:16.200Z,5.03
2023-04-28T02:51:43.267Z,5.20
2023-04-28T02:54:10.570Z,4.75
2023-04-28T02:56:37.600Z,4.95
2023-04-28T02:59:04.657Z,4.90
2023-04-28T03:01:31.984Z,5.57
2023-04-28T03:03:59.223Z,5.72
2023-04-28T03:06:26.697Z,6.85
2023-04-28T03:08:53.827Z,5.38
2023-04-28T03:11:21.629Z,5.65
2023-04-28T03:13:48.793Z,5.25
2023-04-28T03:16:16.027Z,5.82
2023-04-28T03:18:43.117Z,5.82
2023-04-28T03:21:10.425Z,6.00
2023-04-28T03:23:37.483Z,6.25
2023-04-28T03:26:04.655Z,5.80
2023-04-28T03:28:31.936Z,6.55
2023-04-28T03:30:59.043Z,6.22
2023-04-28T03:33:26.180Z,5.97
2023-04-28T03:35:54.154Z,5.80
2023-04-28T03:38:22.448Z,5.90
2023-04-28T03:40:49.539Z,5.88
2023-04-28T03:43:17.174Z,6.10
2023-04-28T03:45:44.293Z,5.68
2023-04-28T03:48:11.410Z,6.53
2023-04-28T03:50:40.921Z,6.78
2023-04-28T03:53:08.219Z,7.55
2023-04-28T03:55:35.429Z,7.75
2023-04-28T03:58:02.613Z,7.20
2023-04-28T04:00:29.693Z,7.07
2023-04-28T04:02:57.144Z,7.38
2023-04-28T04:05:24.525Z,6.60
2023-04-28T04:07:51.632Z,6.40
2023-04-28T04:10:18.698Z,6.40
2023-04-28T04:12:45.817Z,5.97
2023-04-28T04:15:12.883Z,6.18
2023-04-28T04:17:39.961Z,6.32
2023-04-28T04:20:07.630Z,7.55
2023-04-28T04:22:34.723Z,7.88
2023-04-28T04:25:01.782Z,7.35
2023-04-28T04:27:28.859Z,7.13
2023-04-28T04:29:55.885Z,7.15
2023-04-28T04:32:23.025Z,7.53
2023-04-28T04:34:50.116Z,7.25
2023-04-28T04:37:17.541Z,7.78
2023-04-28T04:39:44.585Z,6.03
2023-04-28T04:42:24.023Z,6.63
2023-04-28T04:47:19.688Z,7.82
2023-04-28T04:49:47.007Z,8.07
2023-04-28T04:52:14.040Z,7.90
2023-04-28T04:54:41.163Z,7.45
2023-04-28T04:57:08.405Z,7.30
2023-04-28T04:59:35.461Z,7.45
2023-04-28T05:02:02.593Z,7.07
2023-04-28T05:04:29.779Z,7.70
2023-04-28T05:06:56.886Z,7.68
2023-04-28T05:09:23.993Z,6.88
2023-04-28T05:11:51.052Z,6.80
2023-04-28T05:14:18.499Z,7.07
2023-04-28T05:16:45.754Z,7.20
2023-04-28T05:19:12.806Z,6.93
2023-04-28T05:21:39.911Z,7.50
2023-04-28T05:24:07.077Z,7.20
2023-04-28T05:26:34.116Z,7.72
2023-04-28T05:29:01.306Z,8.02
2023-04-28T05:31:28.341Z,7.18
2023-04-28T05:33:55.474Z,7.00
2023-04-28T05:36:22.528Z,7.90
2023-04-28T05:38:49.531Z,7.90
2023-04-28T05:41:16.690Z,6.68
2023-04-28T05:43:43.808Z,7.65
2023-04-28T05:46:28.399Z,7.72
2023-04-28T05:48:57.002Z,8.00
2023-04-28T05:51:24.140Z,7.95
2023-04-28T05:53:51.245Z,7.85
2023-04-28T05:56:18.366Z,7.72
2023-04-28T05:58:45.648Z,7.80
2023-04-28T06:01:12.769Z,8.63
2023-04-28T06:03:41.985Z,7.85
2023-04-28T06:06:10.902Z,8.60
2023-04-28T06:08:38.529Z,9.27
2023-04-28T06:11:06.014Z,9.07
2023-04-28T06:13:33.163Z,9.23
2023-04-28T06:16:00.433Z,9.15
2023-04-28T06:18:27.659Z,9.65
2023-04-28T06:20:54.707Z,11.00
2023-04-28T06:23:21.921Z,9.65
2023-04-28T06:25:49.001Z,9.55
2023-04-28T06:28:16.076Z,10.45
2023-04-28T06:30:43.130Z,10.38
2023-04-28T06:33:10.310Z,10.98
2023-04-28T06:35:39.011Z,10.32
2023-04-28T06:38:06.729Z,11.20
2023-04-28T06:40:33.751Z,11.48
2023-04-28T06:43:00.822Z,10.88
2023-04-28T06:45:27.863Z,11.32
2023-04-28T06:47:57.993Z,12.27
2023-04-28T06:50:25.123Z,12.18
2023-04-28T06:52:52.190Z,12.52
2023-04-28T06:55:19.379Z,12.18
2023-04-28T06:57:46.502Z,13.77
2023-04-28T07:00:14.033Z,12.10
2023-04-28T07:02:41.181Z,11.23
2023-04-28T07:05:08.826Z,11.25
2023-04-28T07:07:38.908Z,12.82
2023-04-28T07:10:06.580Z,13.40
2023-04-28T07:12:33.603Z,14.15
2023-04-28T07:15:00.809Z,13.18
2023-04-28T07:17:27.897Z,12.98
2023-04-28T07:19:54.993Z,13.55
2023-04-28T07:22:22.104Z,13.40
2023-04-28T07:24:49.211Z,13.95
2023-04-28T07:27:16.332Z,13.63
2023-04-28T07:29:43.378Z,13.07
2023-04-28T07:32:10.687Z,14.68
2023-04-28T07:34:37.987Z,13.75
2023-04-28T07:37:05.139Z,14.15
2023-04-28T07:39:33.962Z,14.05
2023-04-28T07:42:02.621Z,14.32
2023-04-28T07:44:30.175Z,12.93
2023-04-28T07:46:57.342Z,12.85
2023-04-28T07:49:24.447Z,12.48
2023-04-28T07:51:53.638Z,13.50
2023-04-28T07:54:20.855Z,11.07
2023-04-28T07:56:48.011Z,10.45
2023-04-28T07:59:15.141Z,9.77
2023-04-28T08:01:43.011Z,9.85
2023-04-28T08:04:11.390Z,8.85
2023-04-28T08:06:39.970Z,9.40
2023-04-28T08:09:07.087Z,9.77
2023-04-28T08:11:34.597Z,9.38
2023-04-28T08:14:03.256Z,9.63
2023-04-28T08:16:30.953Z,9.82
2023-04-28T08:18:59.022Z,10.90
2023-04-28T08:21:26.987Z,10.68
2023-04-28T08:23:54.165Z,10.32
2023-04-28T08:26:21.323Z,11.20
2023-04-28T08:28:48.440Z,11.50
2023-04-28T08:31:15.587Z,11.73
2023-04-28T08:33:48.484Z,12.77
2023-04-28T08:36:15.564Z,12.07
2023-04-28T08:38:42.696Z,12.60
2023-04-28T08:41:09.816Z,13.18
2023-04-28T08:43:37.287Z,12.52
2023-04-28T08:46:06.769Z,11.95
2023-04-28T08:48:35.792Z,13.23
2023-04-28T08:51:02.909Z,11.43
2023-04-28T08:53:29.977Z,12.00
2023-04-28T08:55:57.630Z,11.85
2023-04-28T08:58:25.126Z,13.10
2023-04-28T09:00:52.791Z,13.05
2023-04-28T09:03:20.062Z,13.48
2023-04-28T09:05:47.650Z,11.98
2023-04-28T09:08:14.931Z,11.68
2023-04-28T09:10:42.037Z,11.75
2023-04-28T09:13:09.123Z,12.68
2023-04-28T09:15:42.857Z,11.80
2023-04-28T09:18:10.009Z,11.95
2023-04-28T09:20:37.286Z,11.80
2023-04-28T09:23:14.041Z,12.20
2023-04-28T09:25:41.099Z,11.70
2023-04-28T09:28:21.445Z,11.75
2023-04-28T09:30:48.694Z,11.80
2023-04-28T09:33:18.662Z,11.50
2023-04-28T09:35:47.547Z,12.90
2023-04-28T09:38:15.141Z,12.27
2023-04-28T09:41:01.393Z,11.55
2023-04-28T09:43:28.769Z,13.02
2023-04-28T09:46:05.914Z,12.02
2023-04-28T09:48:33.017Z,12.48
2023-04-28T09:51:04.279Z,12.63
2023-04-28T09:53:31.608Z,11.40
2023-04-28T09:55:59.071Z,11.63
2023-04-28T09:58:27.349Z,12.77
2023-04-28T10:00:55.571Z,12.80
2023-04-28T10:03:25.550Z,12.75
2023-04-28T10:05:54.050Z,12.82
2023-04-28T10:08:21.655Z,13.35
2023-04-28T10:10:49.300Z,13.75
2023-04-28T10:13:20.081Z,14.30
2023-04-28T10:15:49.335Z,14.23
2023-04-28T10:18:16.703Z,13.73
2023-04-28T10:20:44.761Z,13.63
2023-04-28T10:23:17.790Z,13.02
2023-04-28T10:25:44.908Z,13.73
2023-04-28T10:28:12.038Z,14.23
2023-04-28T10:30:39.114Z,14.27
2023-04-28T10:33:15.386Z,12.43
2023-04-28T10:35:46.122Z,12.63
2023-04-28T10:38:14.082Z,12.82
2023-04-28T10:40:47.254Z,13.35
2023-04-28T10:43:14.809Z,13.15
2023-04-28T10:45:56.530Z,11.80
2023-04-28T10:48:25.026Z,13.07
2023-04-28T10:51:04.405Z,12.73
2023-04-28T10:53:47.433Z,12.77
2023-04-28T10:56:27.398Z,12.55
2023-04-28T10:58:57.862Z,13.40
2023-04-28T11:01:25.300Z,12.90
2023-04-28T11:04:07.490Z,13.38
2023-04-28T11:06:37.370Z,14.13
2023-04-28T11:09:19.415Z,13.43
2023-04-28T11:11:58.649Z,15.32
2023-04-28T11:14:25.803Z,15.10
2023-04-28T11:16:56.473Z,15.75
2023-04-28T11:19:26.924Z,15.88
2023-04-28T11:21:55.978Z,15.05
2023-04-28T11:24:25.512Z,15.27
2023-04-28T11:26:53.308Z,15.05
2023-04-28T11:29:21.371Z,15.45
2023-04-28T11:31:51.765Z,14.70
2023-04-28T11:34:21.815Z,14.98
2023-04-28T11:36:48.968Z,14.57
2023-04-28T11:39:16.306Z,14.77
2023-04-28T11:41:44.001Z,16.17
2023-04-28T11:44:11.632Z,15.00
2023-04-28T11:46:45.125Z,15.88
2023-04-28T11:49:12.588Z,15.82
2023-04-28T11:51:39.722Z,16.42
2023-04-28T11:54:07.858Z,17.20
2023-04-28T11:56:38.256Z,16.17
2023-04-28T11:59:06.648Z,17.40
2023-04-28T12:01:34.085Z,16.30
2023-04-28T12:04:01.455Z,17.25
2023-04-28T12:06:28.752Z,18.52
2023-04-28T12:08:55.936Z,17.88
2023-04-28T12:11:24.277Z,18.45
2023-04-28T12:14:05.802Z,17.98
2023-04-28T12:16:43.055Z,17.98
2023-04-28T12:19:11.057Z,18.98
2023-04-28T12:21:39.435Z,18.38
2023-04-28T12:24:21.848Z,19.85
2023-04-28T12:26:49.354Z,20.60
2023-04-28T12:29:35.120Z,20.10
2023-04-28T12:32:02.196Z,19.83
2023-04-28T12:34:30.803Z,19.30
2023-04-28T12:36:57.985Z,16.35
2023-04-28T12:39:26.139Z,17.83
2023-04-28T12:41:55.058Z,17.58
2023-04-28T12:44:23.114Z,17.67
2023-04-28T12:46:50.264Z,18.08
2023-04-28T12:49:17.358Z,19.48
2023-04-28T12:51:44.963Z,20.33
2023-04-28T12:54:12.082Z,19.30
2023-04-28T12:56:39.132Z,19.98
2023-04-28T12:59:06.208Z,20.75
2023-04-28T13:01:33.828Z,20.35
2023-04-28T13:04:01.323Z,21.60
2023-04-28T13:06:28.886Z,21.55
2023-04-28T13:08:56.633Z,18.95
2023-04-28T13:11:27.072Z,20.33
2023-04-28T13:16:21.254Z,20.30
2023-04-28T13:18:49.018Z,22.40
2023-04-28T13:21:16.184Z,23.05
2023-04-28T13:23:43.270Z,23.67
2023-04-28T13:26:10.390Z,24.70
2023-04-28T13:28:37.636Z,23.65
2023-04-28T13:31:04.787Z,23.63
2023-04-28T13:33:32.132Z,22.40
2023-04-28T13:35:59.450Z,25.02
2023-04-28T13:38:26.504Z,24.35
2023-04-28T13:40:53.828Z,24.50
2023-04-28T13:43:20.959Z,24.67
2023-04-28T13:45:48.110Z,25.77
2023-04-28T13:48:15.332Z,23.42
2023-04-28T13:50:42.621Z,25.10
2023-04-28T13:53:09.641Z,24.63
2023-04-28T13:55:36.734Z,24.73
2023-04-28T13:58:04.823Z,25.10
2023-04-28T14:00:32.626Z,25.63
2023-04-28T14:03:00.327Z,24.70
2023-04-28T14:05:29.791Z,23.42
2023-04-28T14:07:58.604Z,22.67
2023-04-28T14:10:26.607Z,22.80
2023-04-28T14:12:53.690Z,22.45
2023-04-28T14:15:20.787Z,20.63
2023-04-28T14:17:48.918Z,20.92
2023-04-28T14:20:16.121Z,20.63
2023-04-28T14:22:43.315Z,20.77
2023-04-28T14:25:10.794Z,19.83
2023-04-28T14:27:37.921Z,20.77
2023-04-28T14:30:05.142Z,20.73
2023-04-28T14:32:32.644Z,19.25
2023-04-28T14:34:59.935Z,21.63
2023-04-28T14:37:27.419Z,21.23
2023-04-28T14:39:54.983Z,21.58
2023-04-28T14:42:22.751Z,20.38
2023-04-28T14:44:50.340Z,20.98
2023-04-28T14:47:18.450Z,21.33
2023-04-28T14:49:45.480Z,22.05
2023-04-28T14:52:12.811Z,21.45
2023-04-28T14:54:39.911Z,21.35
2023-04-28T14:57:07.159Z,20.70
2023-04-28T14:59:35.766Z,20.60
2023-04-28T15:02:03.106Z,21.48
2023-04-28T15:04:30.922Z,21.40
2023-04-28T15:06:59.660Z,21.77
2023-04-28T15:09:26.701Z,21.65
2023-04-28T15:11:53.866Z,19.90
2023-04-28T15:14:21.088Z,18.90
2023-04-28T15:16:48.159Z,17.83
2023-04-28T15:19:15.348Z,16.17
2023-04-28T15:21:43.099Z,16.33
2023-04-28T15:24:10.205Z,15.18
2023-04-28T15:26:37.295Z,14.30
2023-04-28T15:29:04.639Z,13.38
2023-04-28T15:31:31.790Z,13.63
2023-04-28T15:33:58.956Z,13.98
2023-04-28T15:36:26.812Z,12.25
2023-04-28T15:38:54.150Z,14.23
2023-04-28T15:41:21.457Z,13.07
2023-04-28T15:43:50.396Z,13.40
2023-04-28T15:46:17.693Z,13.68
2023-04-28T15:48:44.861Z,12.70
2023-04-28T15:51:12.236Z,12.00
2023-04-28T15:53:39.876Z,12.05
2023-04-28T15:56:07.709Z,12.60
2023-04-28T15:58:34.816Z,12.73
2023-04-28T16:01:02.118Z,12.13
2023-04-28T16:03:29.356Z,11.40
2023-04-28T16:05:56.694Z,10.18
2023-04-28T16:08:27.281Z,8.88
2023-04-28T16:10:54.322Z,7.90
2023-04-28T16:13:22.263Z,6.15
2023-04-28T16:15:51.326Z,5.35
2023-04-28T16:18:18.854Z,6.25
2023-04-28T16:20:45.974Z,7.55
2023-04-28T16:23:14.159Z,7.13
2023-04-28T16:25:41.917Z,7.18
2023-04-28T16:28:09.238Z,7.90
2023-04-28T16:30:36.471Z,7.47
2023-04-28T16:33:03.980Z,8.48
2023-04-28T16:35:31.200Z,8.35
2023-04-28T16:37:58.216Z,8.52
2023-04-28T16:40:25.451Z,8.13
2023-04-28T16:42:52.582Z,8.07
2023-04-28T16:45:20.453Z,7.78
2023-04-28T16:47:47.758Z,8.20
2023-04-28T16:50:14.983Z,8.27
2023-04-28T16:52:42.222Z,8.18
2023-04-28T16:55:09.813Z,8.73
2023-04-28T16:57:37.290Z,8.88
2023-04-28T17:00:04.911Z,8.27
2023-04-28T17:02:33.349Z,8.25
2023-04-28T17:05:00.537Z,8.30
2023-04-28T17:07:27.715Z,9.00
2023-04-28T17:09:54.841Z,8.43
2023-04-28T17:12:23.272Z,8.18
2023-04-28T17:14:53.946Z,10.75
2023-04-28T17:17:21.055Z,8.55
2023-04-28T17:19:48.233Z,7.60
2023-04-28T17:22:15.538Z,7.95
2023-04-28T17:24:44.614Z,8.25
2023-04-28T17:27:11.696Z,8.05
2023-04-28T17:29:38.803Z,7.82
2023-04-28T17:32:06.154Z,9.05
2023-04-28T17:34:33.307Z,8.82
2023-04-28T17:37:00.713Z,7.80
2023-04-28T17:39:27.757Z,9.40
2023-04-28T17:41:57.555Z,9.20
2023-04-28T17:44:24.731Z,9.77
2023-04-28T17:46:51.850Z,10.30
2023-04-28T17:49:19.017Z,10.38
2023-04-28T17:51:46.144Z,11.60
2023-04-28T17:54:13.174Z,11.30
2023-04-28T17:56:40.217Z,11.07
2023-04-28T17:59:08.805Z,11.20
2023-04-28T18:01:36.170Z,13.00
2023-04-28T18:04:04.067Z,12.80
2023-04-28T18:06:31.169Z,14.13
2023-04-28T18:08:58.228Z,14.50
2023-04-28T18:11:27.148Z,13.52
2023-04-28T18:13:55.691Z,15.20
2023-04-28T18:16:22.830Z,15.23
2023-04-28T18:18:50.096Z,15.93
2023-04-28T18:21:17.176Z,16.80
2023-04-28T18:23:44.189Z,16.20
2023-04-28T18:26:11.296Z,20.27
2023-04-28T18:28:38.469Z,19.27
2023-04-28T18:31:06.353Z,20.65
2023-04-28T18:33:33.624Z,17.60
2023-04-28T18:36:01.534Z,17.77
2023-04-28T18:38:30.805Z,19.70
2023-04-28T18:40:58.156Z,25.50
2023-04-28T18:43:25.919Z,18.70
2023-04-28T18:45:53.325Z,19.88
2023-04-28T18:48:20.643Z,20.08
2023-04-28T18:50:48.627Z,19.33
2023-04-28T18:53:15.726Z,19.65
2023-04-28T18:55:42.805Z,18.98
2023-04-28T18:58:10.788Z,18.45
2023-04-28T19:00:37.957Z,18.42
2023-04-28T19:03:05.721Z,18.35
2023-04-28T19:05:33.905Z,18.92
2023-04-28T19:08:00.981Z,17.20
2023-04-28T19:10:28.058Z,18.05
2023-04-28T19:12:55.984Z,18.23
2023-04-28T19:15:23.392Z,19.42
2023-04-28T19:17:51.031Z,18.05
2023-04-28T19:20:18.248Z,17.20
2023-04-28T19:22:46.895Z,27.98
2023-04-28T19:25:15.101Z,21.33
2023-04-28T19:27:43.043Z,15.73
2023-04-28T19:30:10.964Z,14.25
2023-04-28T19:32:38.073Z,13.82
2023-04-28T19:35:05.255Z,13.52
2023-04-28T19:37:32.668Z,13.13
2023-04-28T19:39:59.983Z,12.40
2023-04-28T19:42:27.118Z,12.77
2023-04-28T19:44:57.944Z,11.50
2023-04-28T19:47:25.814Z,10.75
2023-04-28T19:49:53.006Z,10.15
2023-04-28T19:52:20.936Z,10.18
2023-04-28T19:54:50.878Z,9.60
2023-04-28T19:57:18.696Z,9.65
2023-04-28T19:59:49.349Z,8.85
2023-04-28T20:02:17.190Z,7.50
2023-04-28T20:04:44.463Z,6.78
2023-04-28T20:07:11.946Z,5.95
2023-04-28T20:09:39.203Z,6.35
2023-04-28T20:12:06.749Z,7.07
2023-04-28T20:14:34.233Z,6.13
2023-04-28T20:17:04.500Z,6.35
2023-04-28T20:19:31.890Z,6.35
2023-04-28T20:21:59.012Z,6.68
2023-04-28T20:24:26.152Z,7.22
2023-04-28T20:26:54.474Z,6.68
2023-04-28T20:29:21.776Z,6.80
2023-04-28T20:31:48.903Z,7.03
2023-04-28T20:34:17.178Z,7.38
2023-04-28T20:36:44.444Z,7.65
2023-04-28T20:39:12.160Z,7.07
2023-04-28T20:41:41.031Z,7.40
2023-04-28T20:44:08.396Z,8.43
2023-04-28T20:46:35.645Z,16.50
2023-04-28T20:49:04.112Z,10.25
2023-04-28T20:51:33.596Z,9.57
2023-04-28T20:54:01.287Z,9.18
2023-04-28T20:56:28.352Z,9.07
2023-04-28T20:58:55.802Z,9.40
2023-04-28T21:01:22.956Z,9.30
2023-04-28T21:03:50.538Z,8.98
2023-04-28T21:06:18.000Z,9.45
2023-04-28T21:08:45.255Z,9.25
2023-04-28T21:11:13.166Z,9.15
2023-04-28T21:13:40.555Z,8.50
2023-04-28T21:16:12.315Z,8.25
2023-04-28T21:18:39.511Z,8.52
2023-04-28T21:21:06.632Z,8.60
2023-04-28T21:23:33.688Z,9.10
2023-04-28T21:26:00.716Z,9.13
2023-04-28T21:28:28.068Z,9.40
2023-04-28T21:30:55.144Z,8.70
2023-04-28T21:33:22.314Z,9.23
2023-04-28T21:35:49.413Z,9.48
2023-04-28T21:38:16.561Z,9.38
2023-04-28T21:40:43.605Z,9.73
2023-04-28T21:43:10.691Z,10.07
2023-04-28T21:45:37.785Z,9.23
2023-04-28T21:48:06.257Z,9.40
2023-04-28T21:50:33.625Z,10.48
2023-04-28T21:53:00.717Z,10.65
2023-04-28T21:55:27.736Z,11.10
2023-04-28T21:57:58.045Z,10.60
2023-04-28T22:00:28.026Z,10.35
2023-04-28T22:02:56.509Z,10.25
2023-04-28T22:05:24.655Z,10.38
2023-04-28T22:07:51.998Z,10.57
2023-04-28T22:10:19.315Z,10.50
2023-04-28T22:12:46.697Z,10.02
2023-04-28T22:15:13.739Z,10.43
2023-04-28T22:17:40.923Z,10.32
2023-04-28T22:20:08.353Z,10.20
2023-04-28T22:22:35.564Z,10.48
2023-04-28T22:25:02.744Z,9.40
2023-04-28T22:27:30.478Z,9.82
2023-04-28T22:29:58.778Z,9.20
2023-04-28T22:32:29.192Z,9.00
2023-04-28T22:34:56.243Z,10.45
2023-04-28T22:37:23.385Z,12.35
2023-04-28T22:39:50.666Z,11.15
2023-04-28T22:42:18.051Z,10.15
2023-04-28T22:44:45.170Z,9.32
2023-04-28T22:47:12.262Z,9.60
2023-04-28T22:49:39.353Z,9.57
2023-04-28T22:52:06.587Z,9.77
2023-04-28T22:54:33.664Z,10.18
2023-04-28T22:57:00.725Z,9.95
2023-04-28T22:59:28.056Z,9.75
2023-04-28T23:01:55.594Z,9.95
2023-04-28T23:04:23.717Z,9.27
2023-04-28T23:06:51.031Z,9.57
2023-04-28T23:09:18.353Z,9.00
2023-04-28T23:11:46.143Z,8.57
2023-04-28T23:14:13.179Z,9.02
2023-04-28T23:16:40.294Z,8.50
2023-04-28T23:19:07.892Z,8.82
2023-04-28T23:21:34.997Z,8.43
2023-04-28T23:24:02.032Z,7.82
2023-04-28T23:26:29.404Z,8.32
2023-04-28T23:28:56.550Z,8.07
2023-04-28T23:31:23.776Z,8.25
2023-04-28T23:33:50.813Z,7.40
2023-04-28T23:36:18.208Z,6.88
2023-04-28T23:38:45.301Z,6.65
2023-04-28T23:41:12.350Z,7.00
2023-04-28T23:43:39.458Z,6.43
2023-04-28T23:46:06.954Z,6.30
2023-04-28T23:48:34.932Z,6.00
2023-04-28T23:51:02.169Z,6.07
2023-04-28T23:53:29.403Z,6.88
2023-04-28T23:55:56.537Z,7.10
2023-04-28T23:58:23.645Z,6.78
